METAR Data
IDs: Format: Raw Decoded Include TAF

Data at: 1759 UTC 03 Jul 2020

METAR for:KRZT (Chillicothe/Ross Cnt, OH, US)
Text:KRZT 031755Z AUTO 02004KT 10SM SCT070 30/13 A3002 RMK AO2 PWINO
Temperature: 30.0°C ( 86°F)
Dewpoint: 13.0°C ( 55°F) [RH = 35%]
Pressure (altimeter):30.02 inches Hg (1016.7 mb)
Winds:from the NNE (20 degrees) at 5 MPH (4 knots; 2.1 m/s)
Visibility:10 or more sm (16+ km)
Ceiling:at least 12,000 feet AGL
Clouds: scattered clouds at 7000 feet AGL
QC Flag:automated observation with no human augmentation